sensor_id;sensor_type;location;lat;lon;timestamp;pressure;altitude;pressure_sealevel;temperature;humidity
3178;BME280;38141;42.666;23.344;2024-01-25T00:00:53;95212.97;;;4.38;100.00
3178;BME280;38141;42.666;23.344;2024-01-25T00:03:21;95215.28;;;4.60;100.00
3178;BME280;38141;42.666;23.344;2024-01-25T00:05:48;95212.69;;;4.52;100.00
3178;BME280;38141;42.666;23.344;2024-01-25T00:08:15;95214.66;;;4.42;100.00
3178;BME280;38141;42.666;23.344;2024-01-25T00:10:42;95195.91;;;4.42;100.00
3178;BME280;38141;42.666;23.344;2024-01-25T00:13:09;95201.34;;;4.67;100.00
3178;BME280;38141;42.666;23.344;2024-01-25T00:15:36;95184.81;;;4.65;100.00
3178;BME280;38141;42.666;23.344;2024-01-25T00:18:04;95157.13;;;4.73;100.00
3178;BME280;38141;42.666;23.344;2024-01-25T00:20:32;95135.56;;;4.45;100.00
3178;BME280;38141;42.666;23.344;2024-01-25T00:22:59;95127.34;;;4.17;100.00
3178;BME280;38141;42.666;23.344;2024-01-25T00:25:26;95100.31;;;3.98;100.00
3178;BME280;38141;42.666;23.344;2024-01-25T00:27:53;95095.34;;;3.88;100.00
3178;BME280;38141;42.666;23.344;2024-01-25T00:30:20;95087.28;;;4.09;100.00
3178;BME280;38141;42.666;23.344;2024-01-25T00:32:48;95103.38;;;4.33;100.00
3178;BME280;38141;42.666;23.344;2024-01-25T00:35:15;95115.09;;;4.28;100.00
3178;BME280;38141;42.666;23.344;2024-01-25T00:37:44;95117.63;;;4.58;100.00
3178;BME280;38141;42.666;23.344;2024-01-25T00:40:12;95117.03;;;4.64;100.00
3178;BME280;38141;42.666;23.344;2024-01-25T00:42:42;95118.34;;;4.34;100.00
3178;BME280;38141;42.666;23.344;2024-01-25T00:45:10;95106.09;;;4.45;100.00
3178;BME280;38141;42.666;23.344;2024-01-25T00:47:38;95097.41;;;4.60;100.00
3178;BME280;38141;42.666;23.344;2024-01-25T00:50:06;95090.47;;;4.47;100.00
3178;BME280;38141;42.666;23.344;2024-01-25T00:52:34;95087.31;;;4.33;100.00
3178;BME280;38141;42.666;23.344;2024-01-25T00:55:04;95078.84;;;4.43;100.00
3178;BME280;38141;42.666;23.344;2024-01-25T00:57:31;95096.50;;;4.44;100.00
3178;BME280;38141;42.666;23.344;2024-01-25T00:59:59;95110.88;;;4.39;100.00
3178;BME280;38141;42.666;23.344;2024-01-25T01:02:32;95113.47;;;4.48;100.00
3178;BME280;38141;42.666;23.344;2024-01-25T01:05:02;95127.75;;;4.64;100.00
3178;BME280;38141;42.666;23.344;2024-01-25T01:07:30;95129.44;;;4.44;100.00
3178;BME280;38141;42.666;23.344;2024-01-25T01:09:57;95130.22;;;4.45;100.00
3178;BME280;38141;42.666;23.344;2024-01-25T01:12:25;95115.34;;;4.47;100.00
3178;BME280;38141;42.666;23.344;2024-01-25T01:14:52;95107.69;;;4.70;100.00
3178;BME280;38141;42.666;23.344;2024-01-25T01:17:19;95088.25;;;4.61;100.00
3178;BME280;38141;42.666;23.344;2024-01-25T01:19:46;95078.50;;;4.32;100.00
3178;BME280;38141;42.666;23.344;2024-01-25T01:22:13;95072.25;;;4.28;100.00
3178;BME280;38141;42.666;23.344;2024-01-25T01:24:40;95050.63;;;4.45;100.00
3178;BME280;38141;42.666;23.344;2024-01-25T01:27:07;95044.63;;;4.48;100.00
3178;BME280;38141;42.666;23.344;2024-01-25T01:29:35;95048.50;;;4.27;100.00
3178;BME280;38141;42.666;23.344;2024-01-25T01:32:02;95047.03;;;4.17;100.00
3178;BME280;38141;42.666;23.344;2024-01-25T01:34:29;95044.47;;;4.21;100.00
3178;BME280;38141;42.666;23.344;2024-01-25T01:36:56;95054.53;;;4.48;100.00
3178;BME280;38141;42.666;23.344;2024-01-25T01:39:23;95053.53;;;4.53;100.00
3178;BME280;38141;42.666;23.344;2024-01-25T01:41:50;95053.09;;;4.75;100.00
3178;BME280;38141;42.666;23.344;2024-01-25T01:44:17;95047.38;;;4.64;100.00
3178;BME280;38141;42.666;23.344;2024-01-25T01:46:46;95045.28;;;4.70;100.00
3178;BME280;38141;42.666;23.344;2024-01-25T01:49:14;95038.00;;;4.70;100.00
3178;BME280;38141;42.666;23.344;2024-01-25T01:51:41;95029.50;;;4.68;100.00
3178;BME280;38141;42.666;23.344;2024-01-25T01:54:09;95023.38;;;4.56;100.00
3178;BME280;38141;42.666;23.344;2024-01-25T01:56:37;95020.28;;;4.54;100.00
3178;BME280;38141;42.666;23.344;2024-01-25T01:59:08;95019.16;;;4.67;100.00
3178;BME280;38141;42.666;23.344;2024-01-25T02:01:36;95022.03;;;4.74;100.00
3178;BME280;38141;42.666;23.344;2024-01-25T02:04:05;95017.91;;;4.88;100.00
3178;BME280;38141;42.666;23.344;2024-01-25T02:06:32;95020.25;;;4.78;100.00
3178;BME280;38141;42.666;23.344;2024-01-25T02:08:59;95021.38;;;4.65;100.00
3178;BME280;38141;42.666;23.344;2024-01-25T02:11:27;95017.69;;;4.69;100.00
3178;BME280;38141;42.666;23.344;2024-01-25T02:13:54;95008.63;;;4.74;100.00
3178;BME280;38141;42.666;23.344;2024-01-25T02:16:21;95012.34;;;4.81;100.00
3178;BME280;38141;42.666;23.344;2024-01-25T02:18:48;95014.00;;;4.86;100.00
3178;BME280;38141;42.666;23.344;2024-01-25T02:21:17;95013.22;;;4.73;100.00
3178;BME280;38141;42.666;23.344;2024-01-25T02:23:45;95014.25;;;4.57;100.00
3178;BME280;38141;42.666;23.344;2024-01-25T02:26:12;95017.13;;;4.64;100.00
3178;BME280;38141;42.666;23.344;2024-01-25T02:28:39;95002.03;;;4.83;100.00
3178;BME280;38141;42.666;23.344;2024-01-25T02:31:06;95005.03;;;4.94;100.00
3178;BME280;38141;42.666;23.344;2024-01-25T02:33:33;94994.69;;;4.80;100.00
3178;BME280;38141;42.666;23.344;2024-01-25T02:36:00;94999.59;;;4.78;100.00
3178;BME280;38141;42.666;23.344;2024-01-25T02:38:27;94977.00;;;4.91;100.00
3178;BME280;38141;42.666;23.344;2024-01-25T02:40:55;94998.06;;;5.05;100.00
3178;BME280;38141;42.666;23.344;2024-01-25T02:43:23;94987.94;;;4.99;100.00
3178;BME280;38141;42.666;23.344;2024-01-25T02:45:49;94989.75;;;4.95;100.00
3178;BME280;38141;42.666;23.344;2024-01-25T02:48:16;94994.81;;;4.60;100.00
3178;BME280;38141;42.666;23.344;2024-01-25T02:50:43;94994.72;;;4.44;100.00
3178;BME280;38141;42.666;23.344;2024-01-25T02:53:10;94982.97;;;4.61;100.00
3178;BME280;38141;42.666;23.344;2024-01-25T02:55:37;94985.75;;;4.64;100.00
3178;BME280;38141;42.666;23.344;2024-01-25T02:58:06;94983.09;;;4.64;100.00
3178;BME280;38141;42.666;23.344;2024-01-25T03:00:32;94987.91;;;4.46;100.00
3178;BME280;38141;42.666;23.344;2024-01-25T03:02:59;94991.34;;;4.23;100.00
3178;BME280;38141;42.666;23.344;2024-01-25T03:05:26;95000.31;;;4.27;100.00
3178;BME280;38141;42.666;23.344;2024-01-25T03:07:53;95006.31;;;4.48;100.00
3178;BME280;38141;42.666;23.344;2024-01-25T03:10:20;94989.69;;;4.55;100.00
3178;BME280;38141;42.666;23.344;2024-01-25T03:12:47;94972.59;;;4.59;100.00
3178;BME280;38141;42.666;23.344;2024-01-25T03:15:16;94992.19;;;5.27;100.00
3178;BME280;38141;42.666;23.344;2024-01-25T03:17:43;94979.63;;;5.71;100.00
3178;BME280;38141;42.666;23.344;2024-01-25T03:20:10;94985.72;;;6.00;100.00
3178;BME280;38141;42.666;23.344;2024-01-25T03:22:37;94974.47;;;6.25;100.00
3178;BME280;38141;42.666;23.344;2024-01-25T03:25:05;94959.69;;;6.51;100.00
3178;BME280;38141;42.666;23.344;2024-01-25T03:27:32;94965.44;;;6.84;100.00
3178;BME280;38141;42.666;23.344;2024-01-25T03:29:59;94963.63;;;6.88;100.00
3178;BME280;38141;42.666;23.344;2024-01-25T03:32:27;94969.63;;;7.01;100.00
3178;BME280;38141;42.666;23.344;2024-01-25T03:34:54;94975.97;;;7.08;100.00
3178;BME280;38141;42.666;23.344;2024-01-25T03:37:21;94990.28;;;7.12;100.00
3178;BME280;38141;42.666;23.344;2024-01-25T03:39:48;94968.09;;;7.19;100.00
3178;BME280;38141;42.666;23.344;2024-01-25T03:42:15;94957.41;;;7.23;100.00
3178;BME280;38141;42.666;23.344;2024-01-25T03:44:42;94941.81;;;7.32;100.00
3178;BME280;38141;42.666;23.344;2024-01-25T03:47:10;94934.91;;;7.31;100.00
3178;BME280;38141;42.666;23.344;2024-01-25T03:49:38;94937.66;;;7.34;100.00
3178;BME280;38141;42.666;23.344;2024-01-25T03:52:06;94939.91;;;7.32;100.00
3178;BME280;38141;42.666;23.344;2024-01-25T03:54:33;94940.00;;;7.36;100.00
3178;BME280;38141;42.666;23.344;2024-01-25T03:57:00;94938.28;;;7.47;100.00
3178;BME280;38141;42.666;23.344;2024-01-25T03:59:27;94930.69;;;7.52;100.00
3178;BME280;38141;42.666;23.344;2024-01-25T04:01:53;94908.25;;;7.45;100.00
3178;BME280;38141;42.666;23.344;2024-01-25T04:04:21;94931.41;;;7.49;100.00
3178;BME280;38141;42.666;23.344;2024-01-25T04:06:49;94925.88;;;7.62;100.00
3178;BME280;38141;42.666;23.344;2024-01-25T04:09:16;94925.16;;;7.65;100.00
3178;BME280;38141;42.666;23.344;2024-01-25T04:11:43;94926.06;;;7.72;100.00
3178;BME280;38141;42.666;23.344;2024-01-25T04:14:10;94907.56;;;7.71;100.00
3178;BME280;38141;42.666;23.344;2024-01-25T04:16:37;94912.66;;;7.76;100.00
3178;BME280;38141;42.666;23.344;2024-01-25T04:19:04;94910.66;;;7.73;99.39
3178;BME280;38141;42.666;23.344;2024-01-25T04:21:32;94918.03;;;7.76;98.93
3178;BME280;38141;42.666;23.344;2024-01-25T04:24:00;94911.34;;;7.66;99.38
3178;BME280;38141;42.666;23.344;2024-01-25T04:26:27;94920.97;;;7.67;100.00
3178;BME280;38141;42.666;23.344;2024-01-25T04:28:54;94919.47;;;7.70;100.00
3178;BME280;38141;42.666;23.344;2024-01-25T04:31:21;94924.78;;;7.66;99.35
3178;BME280;38141;42.666;23.344;2024-01-25T04:33:48;94921.03;;;7.71;98.40
3178;BME280;38141;42.666;23.344;2024-01-25T04:36:15;94916.19;;;7.80;98.23
3178;BME280;38141;42.666;23.344;2024-01-25T04:38:42;94913.13;;;7.81;96.23
3178;BME280;38141;42.666;23.344;2024-01-25T04:41:12;94929.59;;;7.76;96.21
3178;BME280;38141;42.666;23.344;2024-01-25T04:43:39;94941.66;;;7.63;94.89
3178;BME280;38141;42.666;23.344;2024-01-25T04:46:06;94939.69;;;7.60;95.01
3178;BME280;38141;42.666;23.344;2024-01-25T04:48:33;94952.06;;;7.45;95.61
3178;BME280;38141;42.666;23.344;2024-01-25T04:51:00;94933.56;;;7.40;96.28
3178;BME280;38141;42.666;23.344;2024-01-25T04:53:27;94945.56;;;7.27;96.79
3178;BME280;38141;42.666;23.344;2024-01-25T04:55:54;94957.00;;;7.21;97.51
3178;BME280;38141;42.666;23.344;2024-01-25T04:58:23;94950.47;;;7.22;96.99
3178;BME280;38141;42.666;23.344;2024-01-25T05:00:50;94955.94;;;7.25;96.47
3178;BME280;38141;42.666;23.344;2024-01-25T05:03:18;94956.94;;;7.17;96.18
3178;BME280;38141;42.666;23.344;2024-01-25T05:05:45;94971.56;;;7.20;95.69
3178;BME280;38141;42.666;23.344;2024-01-25T05:08:12;94979.78;;;7.07;95.87
3178;BME280;38141;42.666;23.344;2024-01-25T05:10:39;94980.25;;;6.94;95.76
3178;BME280;38141;42.666;23.344;2024-01-25T05:13:06;94982.13;;;6.74;96.90
3178;BME280;38141;42.666;23.344;2024-01-25T05:15:35;94969.53;;;6.78;96.67
3178;BME280;38141;42.666;23.344;2024-01-25T05:18:02;95001.19;;;6.69;96.79
3178;BME280;38141;42.666;23.344;2024-01-25T05:20:29;95000.59;;;6.76;97.60
3178;BME280;38141;42.666;23.344;2024-01-25T05:22:58;95010.13;;;6.73;97.00
3178;BME280;38141;42.666;23.344;2024-01-25T05:25:25;95012.78;;;6.54;97.61
3178;BME280;38141;42.666;23.344;2024-01-25T05:27:53;95004.00;;;6.57;95.68
3178;BME280;38141;42.666;23.344;2024-01-25T05:30:20;94972.53;;;6.57;94.49
3178;BME280;38141;42.666;23.344;2024-01-25T05:32:49;94999.28;;;6.85;91.96
3178;BME280;38141;42.666;23.344;2024-01-25T05:35:16;95004.47;;;6.94;90.92
3178;BME280;38141;42.666;23.344;2024-01-25T05:37:43;95002.03;;;6.89;90.34
3178;BME280;38141;42.666;23.344;2024-01-25T05:40:11;95011.81;;;6.97;89.23
3178;BME280;38141;42.666;23.344;2024-01-25T05:42:39;95012.94;;;6.96;89.77
3178;BME280;38141;42.666;23.344;2024-01-25T05:45:07;95013.38;;;6.98;89.86
3178;BME280;38141;42.666;23.344;2024-01-25T05:47:34;95013.66;;;6.93;88.99
3178;BME280;38141;42.666;23.344;2024-01-25T05:50:03;95021.25;;;7.06;88.09
3178;BME280;38141;42.666;23.344;2024-01-25T05:52:30;95015.81;;;7.03;87.38
3178;BME280;38141;42.666;23.344;2024-01-25T05:54:57;95025.34;;;7.00;87.71
3178;BME280;38141;42.666;23.344;2024-01-25T05:57:27;95011.63;;;7.05;88.13
3178;BME280;38141;42.666;23.344;2024-01-25T05:59:54;95032.09;;;7.10;86.70
3178;BME280;38141;42.666;23.344;2024-01-25T06:02:21;95021.84;;;7.15;85.53
3178;BME280;38141;42.666;23.344;2024-01-25T06:04:48;95038.50;;;7.21;86.17
3178;BME280;38141;42.666;23.344;2024-01-25T06:07:20;95043.81;;;7.37;85.02
3178;BME280;38141;42.666;23.344;2024-01-25T06:09:47;95042.88;;;7.29;85.45
3178;BME280;38141;42.666;23.344;2024-01-25T06:12:14;95047.69;;;7.20;86.10
3178;BME280;38141;42.666;23.344;2024-01-25T06:14:41;95049.00;;;7.10;86.83
3178;BME280;38141;42.666;23.344;2024-01-25T06:17:07;95058.31;;;7.13;87.94
3178;BME280;38141;42.666;23.344;2024-01-25T06:19:34;95061.34;;;7.11;87.73
3178;BME280;38141;42.666;23.344;2024-01-25T06:22:01;95049.31;;;7.25;89.49
3178;BME280;38141;42.666;23.344;2024-01-25T06:24:30;95050.44;;;7.24;88.13
3178;BME280;38141;42.666;23.344;2024-01-25T06:26:57;95058.69;;;7.31;88.08
3178;BME280;38141;42.666;23.344;2024-01-25T06:29:24;95057.91;;;7.30;87.31
3178;BME280;38141;42.666;23.344;2024-01-25T06:31:51;95060.22;;;7.32;87.81
3178;BME280;38141;42.666;23.344;2024-01-25T06:34:18;95059.59;;;7.38;87.50
3178;BME280;38141;42.666;23.344;2024-01-25T06:36:45;95055.41;;;7.41;87.08
3178;BME280;38141;42.666;23.344;2024-01-25T06:39:12;95049.19;;;7.37;86.46
3178;BME280;38141;42.666;23.344;2024-01-25T06:41:41;95031.34;;;7.29;87.25
3178;BME280;38141;42.666;23.344;2024-01-25T06:44:08;95025.59;;;7.30;86.94
3178;BME280;38141;42.666;23.344;2024-01-25T06:46:35;95029.38;;;7.45;87.86
3178;BME280;38141;42.666;23.344;2024-01-25T06:49:02;95053.59;;;7.45;86.44
3178;BME280;38141;42.666;23.344;2024-01-25T06:51:29;95053.41;;;7.53;86.68
3178;BME280;38141;42.666;23.344;2024-01-25T06:53:56;95045.53;;;7.45;86.98
3178;BME280;38141;42.666;23.344;2024-01-25T06:56:23;95038.72;;;7.51;86.21
3178;BME280;38141;42.666;23.344;2024-01-25T06:58:51;95036.56;;;7.41;85.56
3178;BME280;38141;42.666;23.344;2024-01-25T07:01:20;95028.22;;;7.46;86.31
3178;BME280;38141;42.666;23.344;2024-01-25T07:03:48;95028.66;;;7.48;85.56
3178;BME280;38141;42.666;23.344;2024-01-25T07:06:16;95024.41;;;7.47;86.22
3178;BME280;38141;42.666;23.344;2024-01-25T07:08:43;95013.66;;;7.66;85.92
3178;BME280;38141;42.666;23.344;2024-01-25T07:11:10;95036.31;;;7.65;84.57
3178;BME280;38141;42.666;23.344;2024-01-25T07:13:37;95016.56;;;7.57;84.16
3178;BME280;38141;42.666;23.344;2024-01-25T07:16:06;95025.41;;;7.58;84.13
3178;BME280;38141;42.666;23.344;2024-01-25T07:18:33;95015.22;;;7.67;82.38
3178;BME280;38141;42.666;23.344;2024-01-25T07:21:00;95008.59;;;7.84;81.02
3178;BME280;38141;42.666;23.344;2024-01-25T07:23:29;95018.09;;;7.78;80.79
3178;BME280;38141;42.666;23.344;2024-01-25T07:25:56;95025.75;;;7.56;81.82
3178;BME280;38141;42.666;23.344;2024-01-25T07:28:23;95022.84;;;7.65;82.13
3178;BME280;38141;42.666;23.344;2024-01-25T07:30:50;95023.19;;;7.64;80.92
3178;BME280;38141;42.666;23.344;2024-01-25T07:33:18;95038.66;;;7.67;81.20
3178;BME280;38141;42.666;23.344;2024-01-25T07:35:45;95037.94;;;7.70;81.08
3178;BME280;38141;42.666;23.344;2024-01-25T07:38:13;95027.03;;;7.63;81.34
3178;BME280;38141;42.666;23.344;2024-01-25T07:40:41;95026.94;;;7.59;81.99
3178;BME280;38141;42.666;23.344;2024-01-25T07:43:08;95031.28;;;7.64;81.63
3178;BME280;38141;42.666;23.344;2024-01-25T07:45:35;95037.38;;;7.60;81.40
3178;BME280;38141;42.666;23.344;2024-01-25T07:48:02;95044.59;;;7.56;81.16
3178;BME280;38141;42.666;23.344;2024-01-25T07:50:31;95059.53;;;7.73;80.80
3178;BME280;38141;42.666;23.344;2024-01-25T07:52:58;95054.59;;;7.94;79.44
3178;BME280;38141;42.666;23.344;2024-01-25T07:55:26;95071.09;;;7.93;79.07
3178;BME280;38141;42.666;23.344;2024-01-25T07:57:55;95072.22;;;8.11;76.90
3178;BME280;38141;42.666;23.344;2024-01-25T08:00:22;95068.44;;;8.35;75.03
3178;BME280;38141;42.666;23.344;2024-01-25T08:02:49;95068.06;;;8.82;72.60
3178;BME280;38141;42.666;23.344;2024-01-25T08:05:16;95066.16;;;8.82;71.66
3178;BME280;38141;42.666;23.344;2024-01-25T08:07:46;95072.13;;;8.72;72.53
3178;BME280;38141;42.666;23.344;2024-01-25T08:10:14;95060.06;;;8.63;71.82
3178;BME280;38141;42.666;23.344;2024-01-25T08:12:41;95059.63;;;8.61;72.41
3178;BME280;38141;42.666;23.344;2024-01-25T08:15:10;95064.44;;;8.48;71.67
3178;BME280;38141;42.666;23.344;2024-01-25T08:17:37;95068.44;;;8.58;71.14
3178;BME280;38141;42.666;23.344;2024-01-25T08:20:05;95071.44;;;8.53;71.67
3178;BME280;38141;42.666;23.344;2024-01-25T08:22:32;95072.09;;;8.46;72.19
3178;BME280;38141;42.666;23.344;2024-01-25T08:25:01;95067.53;;;8.50;71.48
3178;BME280;38141;42.666;23.344;2024-01-25T08:27:30;95082.53;;;8.47;70.17
3178;BME280;38141;42.666;23.344;2024-01-25T08:29:57;95076.69;;;8.68;69.92
3178;BME280;38141;42.666;23.344;2024-01-25T08:32:24;95091.75;;;8.92;69.10
3178;BME280;38141;42.666;23.344;2024-01-25T08:34:51;95079.66;;;9.09;68.80
3178;BME280;38141;42.666;23.344;2024-01-25T08:37:17;95079.41;;;9.17;68.10
3178;BME280;38141;42.666;23.344;2024-01-25T08:39:44;95085.78;;;9.06;67.14
3178;BME280;38141;42.666;23.344;2024-01-25T08:42:16;95081.47;;;9.01;66.91
3178;BME280;38141;42.666;23.344;2024-01-25T08:44:43;95077.50;;;8.95;66.84
3178;BME280;38141;42.666;23.344;2024-01-25T08:47:14;95070.84;;;9.12;66.26
3178;BME280;38141;42.666;23.344;2024-01-25T08:49:42;95084.59;;;9.29;65.39
3178;BME280;38141;42.666;23.344;2024-01-25T08:52:09;95089.88;;;8.96;65.90
3178;BME280;38141;42.666;23.344;2024-01-25T08:54:37;95092.06;;;9.13;66.58
3178;BME280;38141;42.666;23.344;2024-01-25T08:57:04;95075.25;;;8.97;65.37
3178;BME280;38141;42.666;23.344;2024-01-25T08:59:34;95085.38;;;9.30;64.86
3178;BME280;38141;42.666;23.344;2024-01-25T09:02:03;95091.22;;;9.62;64.40
3178;BME280;38141;42.666;23.344;2024-01-25T09:04:31;95086.53;;;10.18;62.40
3178;BME280;38141;42.666;23.344;2024-01-25T09:06:58;95079.94;;;10.53;61.64
3178;BME280;38141;42.666;23.344;2024-01-25T09:09:25;95086.75;;;10.40;61.80
3178;BME280;38141;42.666;23.344;2024-01-25T09:11:52;95084.88;;;10.88;59.52
3178;BME280;38141;42.666;23.344;2024-01-25T09:14:19;95080.28;;;11.46;58.25
3178;BME280;38141;42.666;23.344;2024-01-25T09:16:48;95083.09;;;13.04;53.38
3178;BME280;38141;42.666;23.344;2024-01-25T09:19:15;95089.72;;;11.70;55.63
3178;BME280;38141;42.666;23.344;2024-01-25T09:21:43;95073.63;;;10.42;59.07
3178;BME280;38141;42.666;23.344;2024-01-25T09:24:10;95070.91;;;9.71;60.83
3178;BME280;38141;42.666;23.344;2024-01-25T09:26:37;95076.97;;;9.95;61.43
3178;BME280;38141;42.666;23.344;2024-01-25T09:29:04;95075.50;;;10.04;61.53
3178;BME280;38141;42.666;23.344;2024-01-25T09:31:31;95075.78;;;9.92;61.58
3178;BME280;38141;42.666;23.344;2024-01-25T09:33:59;95062.59;;;9.87;61.60
3178;BME280;38141;42.666;23.344;2024-01-25T09:36:26;95071.69;;;10.83;58.75
3178;BME280;38141;42.666;23.344;2024-01-25T09:38:53;95075.47;;;10.31;59.94
3178;BME280;38141;42.666;23.344;2024-01-25T09:41:20;95070.66;;;9.83;60.49
3178;BME280;38141;42.666;23.344;2024-01-25T09:43:47;95069.91;;;11.01;58.94
3178;BME280;38141;42.666;23.344;2024-01-25T09:46:15;95062.81;;;11.40;57.52
3178;BME280;38141;42.666;23.344;2024-01-25T09:48:42;95058.13;;;10.79;58.30
3178;BME280;38141;42.666;23.344;2024-01-25T09:51:13;95047.16;;;10.61;59.31
3178;BME280;38141;42.666;23.344;2024-01-25T09:53:41;95050.59;;;10.58;58.44
3178;BME280;38141;42.666;23.344;2024-01-25T09:56:09;95036.31;;;10.17;59.92
3178;BME280;38141;42.666;23.344;2024-01-25T09:58:38;95050.84;;;10.43;60.55
3178;BME280;38141;42.666;23.344;2024-01-25T10:01:08;95047.72;;;10.04;61.34
3178;BME280;38141;42.666;23.344;2024-01-25T10:03:36;95046.75;;;10.19;61.19
3178;BME280;38141;42.666;23.344;2024-01-25T10:06:05;95041.00;;;10.24;60.45
3178;BME280;38141;42.666;23.344;2024-01-25T10:08:34;95031.81;;;10.32;61.59
3178;BME280;38141;42.666;23.344;2024-01-25T10:11:01;95029.88;;;10.29;61.40
3178;BME280;38141;42.666;23.344;2024-01-25T10:13:29;95026.97;;;10.48;60.68
3178;BME280;38141;42.666;23.344;2024-01-25T10:15:56;95022.38;;;10.56;59.75
3178;BME280;38141;42.666;23.344;2024-01-25T10:18:23;95009.56;;;10.49;60.66
3178;BME280;38141;42.666;23.344;2024-01-25T10:20:53;95010.19;;;10.76;60.33
3178;BME280;38141;42.666;23.344;2024-01-25T10:23:20;95002.22;;;10.50;60.60
3178;BME280;38141;42.666;23.344;2024-01-25T10:25:49;95006.56;;;10.58;61.60
3178;BME280;38141;42.666;23.344;2024-01-25T10:28:16;94999.31;;;10.73;60.67
3178;BME280;38141;42.666;23.344;2024-01-25T10:30:43;95005.69;;;10.98;59.70
3178;BME280;38141;42.666;23.344;2024-01-25T10:33:10;95010.44;;;11.19;60.16
3178;BME280;38141;42.666;23.344;2024-01-25T10:35:38;95011.00;;;11.45;58.59
3178;BME280;38141;42.666;23.344;2024-01-25T10:38:07;95004.34;;;11.29;59.18
3178;BME280;38141;42.666;23.344;2024-01-25T10:40:35;95005.38;;;11.10;59.33
3178;BME280;38141;42.666;23.344;2024-01-25T10:43:04;95011.13;;;11.01;59.81
3178;BME280;38141;42.666;23.344;2024-01-25T10:45:31;95010.66;;;10.89;60.41
3178;BME280;38141;42.666;23.344;2024-01-25T10:47:59;94990.47;;;10.76;60.43
3178;BME280;38141;42.666;23.344;2024-01-25T10:50:26;94995.31;;;10.56;60.89
3178;BME280;38141;42.666;23.344;2024-01-25T10:52:53;94988.81;;;10.64;61.21
3178;BME280;38141;42.666;23.344;2024-01-25T10:55:21;94983.59;;;10.89;60.55
3178;BME280;38141;42.666;23.344;2024-01-25T10:57:49;94986.53;;;11.28;60.01
3178;BME280;38141;42.666;23.344;2024-01-25T11:00:17;94987.72;;;11.34;58.88
3178;BME280;38141;42.666;23.344;2024-01-25T11:02:45;94985.63;;;11.78;58.01
3178;BME280;38141;42.666;23.344;2024-01-25T11:05:13;94991.50;;;12.01;57.95
3178;BME280;38141;42.666;23.344;2024-01-25T11:07:42;94986.09;;;12.12;56.20
3178;BME280;38141;42.666;23.344;2024-01-25T11:10:16;94978.16;;;11.61;56.82
3178;BME280;38141;42.666;23.344;2024-01-25T11:12:49;94972.38;;;11.66;56.71
3178;BME280;38141;42.666;23.344;2024-01-25T11:15:29;94964.56;;;11.47;57.38
3178;BME280;38141;42.666;23.344;2024-01-25T11:17:56;94959.41;;;11.17;57.42
3178;BME280;38141;42.666;23.344;2024-01-25T11:20:25;94938.19;;;11.26;57.50
3178;BME280;38141;42.666;23.344;2024-01-25T11:22:59;94941.56;;;11.09;58.17
3178;BME280;38141;42.666;23.344;2024-01-25T11:25:29;94935.34;;;11.01;57.82
3178;BME280;38141;42.666;23.344;2024-01-25T11:27:57;94936.38;;;10.86;58.29
3178;BME280;38141;42.666;23.344;2024-01-25T11:30:26;94949.91;;;10.79;58.14
3178;BME280;38141;42.666;23.344;2024-01-25T11:32:53;94936.78;;;10.85;58.71
3178;BME280;38141;42.666;23.344;2024-01-25T11:35:20;94934.81;;;10.82;57.58
3178;BME280;38141;42.666;23.344;2024-01-25T11:37:48;94935.47;;;10.64;57.66
3178;BME280;38141;42.666;23.344;2024-01-25T11:40:17;94924.84;;;10.89;57.49
3178;BME280;38141;42.666;23.344;2024-01-25T11:42:48;94936.22;;;10.58;57.04
3178;BME280;38141;42.666;23.344;2024-01-25T11:45:15;94939.75;;;10.18;57.85
3178;BME280;38141;42.666;23.344;2024-01-25T11:47:44;94929.22;;;9.69;59.17
3178;BME280;38141;42.666;23.344;2024-01-25T11:50:12;94925.22;;;9.56;58.92
3178;BME280;38141;42.666;23.344;2024-01-25T11:52:39;94930.28;;;9.57;59.97
3178;BME280;38141;42.666;23.344;2024-01-25T11:55:08;94935.78;;;9.68;60.28
3178;BME280;38141;42.666;23.344;2024-01-25T11:57:37;94923.47;;;9.70;59.77
3178;BME280;38141;42.666;23.344;2024-01-25T12:00:08;94914.69;;;9.44;61.39
3178;BME280;38141;42.666;23.344;2024-01-25T12:02:36;94928.69;;;9.53;61.31
3178;BME280;38141;42.666;23.344;2024-01-25T12:05:05;94930.16;;;9.47;60.85
3178;BME280;38141;42.666;23.344;2024-01-25T12:07:33;94932.81;;;9.43;61.00
3178;BME280;38141;42.666;23.344;2024-01-25T12:10:02;94935.16;;;9.45;61.28
3178;BME280;38141;42.666;23.344;2024-01-25T12:12:30;94930.91;;;9.44;61.38
3178;BME280;38141;42.666;23.344;2024-01-25T12:14:58;94936.25;;;9.40;61.89
3178;BME280;38141;42.666;23.344;2024-01-25T12:17:26;94928.25;;;9.51;61.82
3178;BME280;38141;42.666;23.344;2024-01-25T12:19:55;94926.47;;;9.62;60.72
3178;BME280;38141;42.666;23.344;2024-01-25T12:22:24;94914.75;;;9.51;60.39
3178;BME280;38141;42.666;23.344;2024-01-25T12:24:54;94912.22;;;9.65;59.95
3178;BME280;38141;42.666;23.344;2024-01-25T12:27:21;94928.78;;;9.63;60.43
3178;BME280;38141;42.666;23.344;2024-01-25T12:29:48;94922.09;;;9.91;59.30
3178;BME280;38141;42.666;23.344;2024-01-25T12:32:16;94915.88;;;10.23;59.20
3178;BME280;38141;42.666;23.344;2024-01-25T12:34:53;94897.50;;;10.50;58.28
3178;BME280;38141;42.666;23.344;2024-01-25T12:37:20;94884.44;;;10.63;57.22
3178;BME280;38141;42.666;23.344;2024-01-25T12:39:49;94887.91;;;10.56;56.89
3178;BME280;38141;42.666;23.344;2024-01-25T12:42:17;94869.00;;;10.63;56.61
3178;BME280;38141;42.666;23.344;2024-01-25T12:44:44;94857.53;;;10.81;56.24
3178;BME280;38141;42.666;23.344;2024-01-25T12:47:12;94844.81;;;10.95;55.29
3178;BME280;38141;42.666;23.344;2024-01-25T12:49:40;94853.38;;;11.08;54.92
3178;BME280;38141;42.666;23.344;2024-01-25T12:52:08;94852.31;;;11.37;54.53
3178;BME280;38141;42.666;23.344;2024-01-25T12:54:35;94848.00;;;11.19;54.72
3178;BME280;38141;42.666;23.344;2024-01-25T12:57:05;94832.94;;;11.21;54.14
3178;BME280;38141;42.666;23.344;2024-01-25T12:59:32;94842.16;;;11.02;53.35
3178;BME280;38141;42.666;23.344;2024-01-25T13:01:59;94825.16;;;11.16;53.49
3178;BME280;38141;42.666;23.344;2024-01-25T13:04:27;94822.53;;;11.44;53.42
3178;BME280;38141;42.666;23.344;2024-01-25T13:06:55;94817.00;;;11.02;53.40